createdAt,value
2017-08-29T00:01:26.354Z,95236.39
2017-08-29T00:03:53.962Z,95238.39
2017-08-29T00:06:21.507Z,95230.63
2017-08-29T00:08:49.080Z,95233.44
2017-08-29T00:11:16.605Z,95231.72
2017-08-29T00:13:44.176Z,95231.72
2017-08-29T00:16:11.756Z,95231.28
2017-08-29T00:18:40.078Z,95228.59
2017-08-29T00:21:07.680Z,95226.39
2017-08-29T00:23:35.279Z,95231.31
2017-08-29T00:26:02.851Z,95234.20
2017-08-29T00:28:30.457Z,95237.61
2017-08-29T00:30:58.133Z,95239.17
2017-08-29T00:33:26.948Z,95234.38
2017-08-29T00:35:55.190Z,95239.45
2017-08-29T00:38:22.818Z,95230.08
2017-08-29T00:40:50.396Z,95235.67
2017-08-29T00:43:17.961Z,95234.22
2017-08-29T00:45:46.119Z,95229.81
2017-08-29T00:48:14.316Z,95229.63
2017-08-29T00:50:42.726Z,95226.44
2017-08-29T00:53:10.320Z,95226.86
2017-08-29T00:55:37.871Z,95222.25
2017-08-29T00:58:05.417Z,95224.22
2017-08-29T01:00:33.065Z,95226.67
2017-08-29T01:03:00.815Z,95234.95
2017-08-29T01:05:28.633Z,95238.10
2017-08-29T01:07:56.423Z,95233.20
2017-08-29T01:10:24.287Z,95233.83
2017-08-29T01:12:52.694Z,95226.50
2017-08-29T01:15:20.300Z,95228.79
2017-08-29T01:17:47.867Z,95223.60
2017-08-29T01:20:15.475Z,95225.90
2017-08-29T01:22:43.976Z,95228.43
2017-08-29T01:25:11.725Z,95227.32
2017-08-29T01:27:39.577Z,95226.60
2017-08-29T01:30:07.514Z,95216.97
2017-08-29T01:32:35.980Z,95218.04
2017-08-29T01:35:03.629Z,95219.55
2017-08-29T01:37:31.270Z,95217.72
2017-08-29T01:39:58.885Z,95224.08
2017-08-29T01:42:26.453Z,95217.98
2017-08-29T01:44:56.901Z,95220.80
2017-08-29T01:47:24.491Z,95221.95
2017-08-29T01:49:52.667Z,95230.66
2017-08-29T01:52:20.282Z,95229.81
2017-08-29T01:54:47.886Z,95233.88
2017-08-29T01:57:15.636Z,95237.19
2017-08-29T01:59:43.328Z,95241.09
2017-08-29T02:02:11.873Z,95244.06
2017-08-29T02:04:39.698Z,95250.20
2017-08-29T02:07:07.318Z,95248.45
2017-08-29T02:09:34.968Z,95243.31
2017-08-29T02:12:02.531Z,95247.25
2017-08-29T02:14:30.471Z,95249.55
2017-08-29T02:16:58.550Z,95257.64
2017-08-29T02:19:26.136Z,95247.67
2017-08-29T02:21:53.806Z,95255.02
2017-08-29T02:24:21.437Z,95259.93
2017-08-29T02:26:49.000Z,95255.54
2017-08-29T02:29:16.543Z,95256.06
2017-08-29T02:31:44.268Z,95260.67
2017-08-29T02:34:11.844Z,95253.32
2017-08-29T02:36:39.492Z,95244.84
2017-08-29T02:39:07.085Z,95248.68
2017-08-29T02:41:34.625Z,95248.74
2017-08-29T02:44:02.171Z,95253.48
2017-08-29T02:46:29.790Z,95254.27
2017-08-29T02:48:57.329Z,95255.20
2017-08-29T02:51:24.893Z,95254.27
2017-08-29T02:53:52.496Z,95258.00
2017-08-29T02:56:20.043Z,95247.14
2017-08-29T02:58:47.824Z,95257.92
2017-08-29T03:01:15.418Z,95256.22
2017-08-29T03:03:42.965Z,95257.09
2017-08-29T03:06:10.545Z,95259.58
2017-08-29T03:08:38.143Z,95258.85
2017-08-29T03:11:05.681Z,95261.66
2017-08-29T03:13:33.240Z,95268.81
2017-08-29T03:16:01.017Z,95258.94
2017-08-29T03:18:28.679Z,95267.92
2017-08-29T03:20:56.565Z,95261.44
2017-08-29T03:23:24.163Z,95266.80
2017-08-29T03:25:51.984Z,95264.64
2017-08-29T03:28:19.605Z,95266.97
2017-08-29T03:30:47.200Z,95263.66
2017-08-29T03:33:14.941Z,95280.95
2017-08-29T03:35:42.523Z,95280.75
2017-08-29T03:38:10.120Z,95279.45
2017-08-29T03:40:37.909Z,95282.70
2017-08-29T03:43:05.447Z,95286.53
2017-08-29T03:45:33.095Z,95288.97
2017-08-29T03:48:00.674Z,95296.83
2017-08-29T03:50:28.244Z,95297.37
2017-08-29T03:52:55.821Z,95305.98
2017-08-29T03:55:23.373Z,95305.94
2017-08-29T03:57:50.956Z,95307.94
2017-08-29T04:00:18.570Z,95312.06
2017-08-29T04:02:46.165Z,95315.15
2017-08-29T04:05:13.826Z,95316.55
2017-08-29T04:07:41.388Z,95320.73
2017-08-29T04:10:08.954Z,95332.70
2017-08-29T04:12:36.593Z,95324.02
2017-08-29T04:15:04.674Z,95326.98
2017-08-29T04:17:32.513Z,95320.84
2017-08-29T04:20:00.247Z,95327.01
2017-08-29T04:22:27.800Z,95327.48
2017-08-29T04:24:57.076Z,95328.63
2017-08-29T04:27:24.735Z,95333.99
2017-08-29T04:29:52.384Z,95336.95
2017-08-29T04:32:20.023Z,95344.51
2017-08-29T04:34:47.667Z,95343.23
2017-08-29T04:37:15.441Z,95358.27
2017-08-29T04:39:43.256Z,95359.92
2017-08-29T04:42:10.838Z,95361.74
2017-08-29T04:44:38.653Z,95371.47
2017-08-29T04:47:06.286Z,95367.43
2017-08-29T04:49:33.979Z,95368.50
2017-08-29T04:52:01.612Z,95375.01
2017-08-29T04:54:30.096Z,95375.84
2017-08-29T04:56:57.799Z,95377.33
2017-08-29T04:59:25.852Z,95385.62
2017-08-29T05:01:53.759Z,95381.15
2017-08-29T05:04:21.411Z,95380.18
2017-08-29T05:06:49.027Z,95381.64
2017-08-29T05:09:16.630Z,95383.84
2017-08-29T05:11:44.377Z,95385.38
2017-08-29T05:14:11.943Z,95377.00
2017-08-29T05:16:39.536Z,95382.51
2017-08-29T05:19:07.116Z,95375.08
2017-08-29T05:21:34.644Z,95380.48
2017-08-29T05:24:02.217Z,95387.91
2017-08-29T05:26:29.726Z,95386.97
2017-08-29T05:28:57.561Z,95393.84
2017-08-29T05:31:25.193Z,95397.09
2017-08-29T05:33:52.737Z,95400.36
2017-08-29T05:36:20.322Z,95397.64
2017-08-29T05:38:47.905Z,95396.67
2017-08-29T05:41:15.773Z,95399.56
2017-08-29T05:43:43.280Z,95391.08
2017-08-29T05:46:10.864Z,95397.94
2017-08-29T05:48:38.412Z,95395.89
2017-08-29T05:51:05.979Z,95397.03
2017-08-29T05:53:33.580Z,95395.84
2017-08-29T05:56:01.154Z,95387.52
2017-08-29T05:58:28.760Z,95398.45
2017-08-29T06:00:56.472Z,95394.72
2017-08-29T06:03:24.247Z,95400.95
2017-08-29T06:05:51.776Z,95397.17
2017-08-29T06:08:19.412Z,95397.93
2017-08-29T06:10:46.972Z,95400.40
2017-08-29T06:13:14.544Z,95405.28
2017-08-29T06:15:42.139Z,95398.30
2017-08-29T06:18:10.212Z,95395.00
2017-08-29T06:20:37.973Z,95389.02
2017-08-29T06:23:05.534Z,95388.68
2017-08-29T06:25:33.089Z,95389.52
2017-08-29T06:28:00.837Z,95381.33
2017-08-29T06:30:28.447Z,95375.97
2017-08-29T06:32:56.607Z,95386.95
2017-08-29T06:35:24.387Z,95384.62
2017-08-29T06:37:51.946Z,95388.06
2017-08-29T06:40:19.560Z,95390.69
2017-08-29T06:42:47.097Z,95384.48
2017-08-29T06:45:14.665Z,95377.70
2017-08-29T06:47:42.197Z,95381.26
2017-08-29T06:50:09.751Z,95383.76
2017-08-29T06:52:37.396Z,95388.36
2017-08-29T06:55:04.953Z,95399.11
2017-08-29T06:57:32.717Z,95393.73
2017-08-29T07:00:00.850Z,95393.89
2017-08-29T07:02:29.560Z,95389.92
2017-08-29T07:04:57.819Z,95388.44
2017-08-29T07:10:37.495Z,95386.22
2017-08-29T07:13:08.907Z,95390.72
2017-08-29T07:18:16.058Z,95385.46
2017-08-29T07:20:50.911Z,95383.66
2017-08-29T07:23:24.253Z,95386.96
2017-08-29T07:25:53.617Z,95382.57
2017-08-29T07:28:21.883Z,95391.25
2017-08-29T07:30:49.468Z,95390.55
2017-08-29T07:33:25.612Z,95388.19
2017-08-29T07:35:53.415Z,95389.03
2017-08-29T07:38:21.072Z,95392.97
2017-08-29T07:40:48.665Z,95388.76
2017-08-29T07:43:17.002Z,95385.82
2017-08-29T07:45:45.206Z,95378.05
2017-08-29T07:48:12.883Z,95393.20
2017-08-29T07:50:41.111Z,95384.56
2017-08-29T07:53:09.479Z,95387.45
2017-08-29T07:55:37.085Z,95382.57
2017-08-29T07:58:05.643Z,95388.73
2017-08-29T08:00:34.957Z,95386.90
2017-08-29T08:03:02.498Z,95384.28
2017-08-29T08:05:30.198Z,95383.99
2017-08-29T08:07:57.826Z,95390.61
2017-08-29T08:10:25.664Z,95390.78
2017-08-29T08:12:56.731Z,95382.94
2017-08-29T08:15:24.418Z,95392.81
2017-08-29T08:17:52.740Z,95388.90
2017-08-29T08:20:21.225Z,95386.46
2017-08-29T08:22:48.927Z,95380.73
2017-08-29T08:25:16.523Z,95390.78
2017-08-29T08:27:44.255Z,95383.20
2017-08-29T08:30:11.871Z,95388.43
2017-08-29T08:32:39.476Z,95392.48
2017-08-29T08:35:07.160Z,95397.11
2017-08-29T08:37:34.780Z,95404.20
2017-08-29T08:40:02.412Z,95400.08
2017-08-29T08:42:29.972Z,95402.51
2017-08-29T08:44:57.622Z,95403.08
2017-08-29T08:47:25.256Z,95389.14
2017-08-29T08:49:52.924Z,95391.14
2017-08-29T08:52:20.601Z,95395.83
2017-08-29T08:54:48.200Z,95387.77
2017-08-29T08:57:15.917Z,95389.53
2017-08-29T08:59:43.568Z,95390.91
2017-08-29T09:02:11.130Z,95384.22
2017-08-29T09:04:38.773Z,95389.89
2017-08-29T09:07:06.390Z,95388.78
2017-08-29T09:09:34.161Z,95394.61
2017-08-29T09:12:01.793Z,95376.56
2017-08-29T09:14:29.367Z,95377.18
2017-08-29T09:16:57.046Z,95385.95
2017-08-29T09:19:24.885Z,95380.46
2017-08-29T09:21:52.565Z,95375.67
2017-08-29T09:24:20.413Z,95370.64
2017-08-29T09:26:47.985Z,95373.41
2017-08-29T09:29:15.581Z,95369.09
2017-08-29T09:31:43.207Z,95381.97
2017-08-29T09:34:10.792Z,95385.56
2017-08-29T09:36:39.120Z,95375.73
2017-08-29T09:39:06.939Z,95378.46
2017-08-29T09:41:34.722Z,95376.09
2017-08-29T09:44:02.294Z,95374.17
2017-08-29T09:46:29.892Z,95375.98
2017-08-29T09:48:57.651Z,95368.52
2017-08-29T09:51:25.232Z,95367.42
2017-08-29T09:53:52.849Z,95367.42
2017-08-29T09:56:20.657Z,95365.91
2017-08-29T09:58:48.245Z,95362.05
2017-08-29T10:01:15.880Z,95360.48
2017-08-29T10:03:43.634Z,95368.59
2017-08-29T10:06:11.401Z,95372.16
2017-08-29T10:08:39.027Z,95373.61
2017-08-29T10:11:06.613Z,95374.91
2017-08-29T10:13:34.211Z,95365.95
2017-08-29T10:16:01.792Z,95380.58
2017-08-29T10:18:29.343Z,95376.67
2017-08-29T10:20:57.490Z,95380.64
2017-08-29T10:23:25.295Z,95382.66
2017-08-29T10:25:52.841Z,95390.41
2017-08-29T10:28:20.723Z,95396.02
2017-08-29T10:30:48.313Z,95396.52
2017-08-29T10:33:16.115Z,95401.70
2017-08-29T10:35:43.710Z,95402.22
2017-08-29T10:38:11.333Z,95411.15
2017-08-29T10:40:38.878Z,95410.09
2017-08-29T10:43:06.468Z,95406.42
2017-08-29T10:45:34.116Z,95407.88
2017-08-29T10:48:02.055Z,95412.59
2017-08-29T10:50:29.821Z,95406.86
2017-08-29T10:52:57.423Z,95405.13
2017-08-29T10:55:24.991Z,95404.98
2017-08-29T10:57:52.578Z,95409.97
2017-08-29T11:00:20.277Z,95406.11
2017-08-29T11:02:47.830Z,95407.95
2017-08-29T11:05:15.407Z,95412.87
2017-08-29T11:07:42.993Z,95414.59
2017-08-29T11:10:10.548Z,95421.66
2017-08-29T11:12:38.121Z,95416.62
2017-08-29T11:15:05.855Z,95410.86
2017-08-29T11:17:33.421Z,95407.34
2017-08-29T11:20:01.006Z,95411.49
2017-08-29T11:22:28.630Z,95410.86
2017-08-29T11:24:56.242Z,95405.52
2017-08-29T11:27:23.874Z,95396.23
2017-08-29T11:29:51.729Z,95406.28
2017-08-29T11:32:19.332Z,95404.22
2017-08-29T11:34:46.947Z,95404.66
2017-08-29T11:37:14.590Z,95404.16
2017-08-29T11:39:42.227Z,95403.07
2017-08-29T11:42:09.795Z,95404.45
2017-08-29T11:44:37.312Z,95401.06
2017-08-29T11:47:04.889Z,95396.69
2017-08-29T11:49:32.655Z,95391.00
2017-08-29T11:52:00.205Z,95398.15
2017-08-29T11:54:27.796Z,95393.35
2017-08-29T11:56:55.353Z,95385.77
2017-08-29T11:59:22.991Z,95380.48
2017-08-29T12:01:50.622Z,95379.31
2017-08-29T12:04:18.447Z,95378.08
2017-08-29T12:06:46.251Z,95384.66
2017-08-29T12:09:14.053Z,95386.07
2017-08-29T12:11:41.721Z,95385.11
2017-08-29T12:14:09.317Z,95380.38
2017-08-29T12:16:37.187Z,95382.30
2017-08-29T12:19:04.943Z,95376.69
2017-08-29T12:21:32.966Z,95369.44
2017-08-29T12:24:00.551Z,95369.63
2017-08-29T12:26:28.171Z,95370.31
2017-08-29T12:28:55.786Z,95363.67
2017-08-29T12:31:23.615Z,95366.54
2017-08-29T12:33:51.505Z,95364.77
2017-08-29T12:36:19.062Z,95368.52
2017-08-29T12:38:46.686Z,95365.08
2017-08-29T12:41:14.442Z,95366.15
2017-08-29T12:43:42.207Z,95364.28
2017-08-29T12:46:10.705Z,95359.74
2017-08-29T12:48:38.764Z,95364.30
2017-08-29T12:51:07.092Z,95356.45
2017-08-29T12:53:34.687Z,95356.26
2017-08-29T12:56:02.258Z,95363.75
2017-08-29T12:58:29.824Z,95372.95
2017-08-29T13:00:57.445Z,95370.23
2017-08-29T13:03:25.070Z,95379.38
2017-08-29T13:05:52.655Z,95389.56
2017-08-29T13:08:21.028Z,95377.20
2017-08-29T13:10:49.677Z,95385.60
2017-08-29T13:13:17.207Z,95397.09
2017-08-29T13:15:45.004Z,95400.44
2017-08-29T13:18:12.568Z,95406.14
2017-08-29T13:20:40.182Z,95417.02
2017-08-29T13:23:07.760Z,95408.41
2017-08-29T13:25:35.363Z,95408.06
2017-08-29T13:28:03.728Z,95410.20
2017-08-29T13:30:32.980Z,95416.09
2017-08-29T13:33:00.732Z,95415.98
2017-08-29T13:35:28.289Z,95419.29
2017-08-29T13:37:55.883Z,95419.78
2017-08-29T13:40:23.458Z,95426.84
2017-08-29T13:42:51.644Z,95419.13
2017-08-29T13:45:19.299Z,95419.08
2017-08-29T13:47:47.085Z,95424.31
2017-08-29T13:50:14.887Z,95436.59
2017-08-29T13:52:43.033Z,95431.00
2017-08-29T13:55:10.569Z,95436.86
2017-08-29T13:57:38.237Z,95440.00
2017-08-29T14:00:07.380Z,95440.53
2017-08-29T14:02:35.019Z,95444.70
2017-08-29T14:05:02.699Z,95443.42
2017-08-29T14:07:30.315Z,95450.66
2017-08-29T14:09:57.840Z,95450.30
2017-08-29T14:12:25.493Z,95458.68
2017-08-29T14:14:53.227Z,95459.22
2017-08-29T14:17:20.804Z,95460.05
2017-08-29T14:19:49.486Z,95469.04
2017-08-29T14:22:18.711Z,95471.23
2017-08-29T14:24:46.386Z,95478.52
2017-08-29T14:27:13.997Z,95470.16
2017-08-29T14:29:41.587Z,95475.05
2017-08-29T14:32:09.213Z,95474.16
2017-08-29T14:34:36.841Z,95468.94
2017-08-29T14:37:04.959Z,95478.03
2017-08-29T14:39:32.605Z,95483.91
2017-08-29T14:42:01.457Z,95482.31
2017-08-29T14:44:29.923Z,95489.03
2017-08-29T14:47:10.566Z,95485.74
2017-08-29T14:49:40.237Z,95493.23
2017-08-29T14:52:52.217Z,95494.82
2017-08-29T14:55:19.972Z,95500.39
2017-08-29T14:57:47.647Z,95497.20
2017-08-29T15:00:16.424Z,95493.83
2017-08-29T15:02:58.792Z,95505.82
2017-08-29T15:05:26.353Z,95513.58
2017-08-29T15:08:05.934Z,95373.72
2017-08-29T15:10:36.037Z,95513.09
2017-08-29T15:13:04.973Z,95511.59
2017-08-29T15:15:32.541Z,95508.55
2017-08-29T15:18:00.147Z,95508.86
2017-08-29T15:20:27.735Z,95503.45
2017-08-29T15:23:02.367Z,95509.80
2017-08-29T15:25:29.916Z,95508.77
2017-08-29T15:27:57.479Z,95510.32
2017-08-29T15:33:06.970Z,95509.22
2017-08-29T15:35:35.352Z,95508.50
2017-08-29T15:38:03.038Z,95501.28
2017-08-29T15:40:30.668Z,95510.23
2017-08-29T15:42:58.248Z,95508.42
2017-08-29T15:45:26.040Z,95508.87
2017-08-29T15:47:54.215Z,95507.04
2017-08-29T15:50:21.783Z,95507.48
2017-08-29T15:52:49.339Z,95521.79
2017-08-29T15:55:16.909Z,95520.88
2017-08-29T15:57:44.568Z,95527.00
2017-08-29T16:00:12.282Z,95526.64
2017-08-29T16:02:40.075Z,95524.89
2017-08-29T16:05:08.608Z,95534.30
2017-08-29T16:07:36.278Z,95540.00
2017-08-29T16:10:03.848Z,95534.58
2017-08-29T16:12:31.410Z,95538.05
2017-08-29T16:14:59.258Z,95546.86
2017-08-29T16:17:26.909Z,95552.02
2017-08-29T16:19:54.695Z,95550.95
2017-08-29T16:22:22.424Z,95557.15
2017-08-29T16:24:50.205Z,95557.95
2017-08-29T16:27:17.813Z,95556.63
2017-08-29T16:29:49.539Z,95562.98
2017-08-29T16:32:19.890Z,95572.03
2017-08-29T16:34:53.255Z,95565.59
2017-08-29T16:37:20.851Z,95561.30
2017-08-29T16:39:48.471Z,95566.03
2017-08-29T16:42:16.027Z,95567.84
2017-08-29T16:44:43.636Z,95565.29
2017-08-29T16:47:11.304Z,95574.67
2017-08-29T16:49:38.901Z,95582.13
2017-08-29T16:52:06.685Z,95568.36
2017-08-29T16:54:34.267Z,95572.66
2017-08-29T16:57:01.899Z,95575.84
2017-08-29T16:59:29.496Z,95576.62
2017-08-29T17:01:57.144Z,95585.66
2017-08-29T17:04:24.892Z,95575.47
2017-08-29T17:06:52.500Z,95577.45
2017-08-29T17:09:20.131Z,95579.97
2017-08-29T17:11:47.886Z,95581.52
2017-08-29T17:14:15.492Z,95587.73
2017-08-29T17:16:43.075Z,95584.59
2017-08-29T17:19:10.608Z,95582.41
2017-08-29T17:21:38.827Z,95586.77
2017-08-29T17:24:06.527Z,95582.09
2017-08-29T17:26:34.081Z,95580.14
2017-08-29T17:29:01.837Z,95585.86
2017-08-29T17:31:29.448Z,95577.63
2017-08-29T17:33:56.976Z,95580.56
2017-08-29T17:36:24.743Z,95586.66
2017-08-29T17:38:52.391Z,95583.52
2017-08-29T17:41:20.036Z,95588.02
2017-08-29T17:43:47.604Z,95593.14
2017-08-29T17:46:15.227Z,95597.05
2017-08-29T17:48:43.013Z,95597.02
2017-08-29T17:51:11.445Z,95599.20
2017-08-29T17:53:39.080Z,95602.13
2017-08-29T17:56:06.693Z,95611.94
2017-08-29T17:58:34.287Z,95618.92
2017-08-29T18:01:01.880Z,95617.67
2017-08-29T18:03:29.563Z,95626.83
2017-08-29T18:05:57.161Z,95630.67
2017-08-29T18:08:24.777Z,95637.55
2017-08-29T18:10:52.332Z,95638.89
2017-08-29T18:13:21.195Z,95636.67
2017-08-29T18:15:48.884Z,95636.76
2017-08-29T18:18:16.616Z,95635.41
2017-08-29T18:20:44.278Z,95640.84
2017-08-29T18:23:12.007Z,95646.76
2017-08-29T18:25:39.853Z,95638.75
2017-08-29T18:28:07.544Z,95636.38
2017-08-29T18:30:35.207Z,95645.34
2017-08-29T18:33:02.897Z,95638.76
2017-08-29T18:35:30.669Z,95648.22
2017-08-29T18:37:58.325Z,95651.88
2017-08-29T18:40:25.837Z,95649.02
2017-08-29T18:42:53.797Z,95653.66
2017-08-29T18:45:21.449Z,95647.77
2017-08-29T18:47:49.645Z,95643.53
2017-08-29T18:50:17.801Z,95647.45
2017-08-29T18:52:46.290Z,95654.53
2017-08-29T18:55:13.967Z,95653.91
2017-08-29T18:57:43.267Z,95657.13
2017-08-29T19:00:11.375Z,95654.07
2017-08-29T19:02:39.071Z,95657.73
2017-08-29T19:05:06.888Z,95665.33
2017-08-29T19:07:34.489Z,95657.44
2017-08-29T19:10:02.454Z,95670.29
2017-08-29T19:12:30.070Z,95668.59
2017-08-29T19:14:57.660Z,95671.58
2017-08-29T19:17:25.279Z,95672.72
2017-08-29T19:19:52.850Z,95677.94
2017-08-29T19:22:20.457Z,95675.12
2017-08-29T19:24:48.004Z,95681.51
2017-08-29T19:27:15.617Z,95686.11
2017-08-29T19:29:43.477Z,95685.27
2017-08-29T19:32:12.883Z,95686.50
2017-08-29T19:34:41.391Z,95684.09
2017-08-29T19:37:08.944Z,95687.84
2017-08-29T19:39:37.530Z,95682.72
2017-08-29T19:42:06.797Z,95679.83
2017-08-29T19:44:34.395Z,95679.17
2017-08-29T19:47:01.953Z,95674.94
2017-08-29T19:49:30.185Z,95675.42
2017-08-29T19:51:57.755Z,95676.46
2017-08-29T19:54:25.366Z,95676.28
2017-08-29T19:56:52.909Z,95677.63
2017-08-29T19:59:20.937Z,95679.87
2017-08-29T20:01:51.428Z,95671.31
2017-08-29T20:04:19.271Z,95661.91
2017-08-29T20:06:46.871Z,95659.06
2017-08-29T20:09:14.406Z,95660.38
2017-08-29T20:11:46.800Z,95656.91
2017-08-29T20:14:14.374Z,95661.39
2017-08-29T20:16:41.897Z,95660.41
2017-08-29T20:19:09.419Z,95651.77
2017-08-29T20:21:37.000Z,95651.33
2017-08-29T20:24:04.869Z,95652.28
2017-08-29T20:26:32.424Z,95654.74
2017-08-29T20:29:01.846Z,95652.28
2017-08-29T20:31:29.475Z,95645.67
2017-08-29T20:33:57.017Z,95639.47
2017-08-29T20:36:24.522Z,95645.89
2017-08-29T20:38:52.054Z,95634.45
2017-08-29T20:41:19.839Z,95638.45
2017-08-29T20:43:47.361Z,95641.19
2017-08-29T20:46:14.935Z,95629.03
2017-08-29T20:48:42.471Z,95625.89
2017-08-29T20:51:10.797Z,95632.59
2017-08-29T20:53:38.333Z,95627.14
2017-08-29T20:56:06.753Z,95628.23
2017-08-29T20:58:34.303Z,95628.75
2017-08-29T21:01:01.885Z,95626.69
2017-08-29T21:03:29.471Z,95625.44
2017-08-29T21:05:57.012Z,95630.61
2017-08-29T21:08:24.823Z,95627.34
2017-08-29T21:10:52.350Z,95628.34
2017-08-29T21:13:19.915Z,95631.09
2017-08-29T21:15:47.481Z,95633.75
2017-08-29T21:18:15.054Z,95638.84
2017-08-29T21:20:42.592Z,95631.83
2017-08-29T21:23:10.232Z,95633.75
2017-08-29T21:25:37.761Z,95630.50
2017-08-29T21:28:05.339Z,95630.57
2017-08-29T21:30:33.819Z,95626.62
2017-08-29T21:33:03.300Z,95625.27
2017-08-29T21:35:31.001Z,95625.91
2017-08-29T21:37:59.234Z,95629.09
2017-08-29T21:40:27.001Z,95630.24
2017-08-29T21:42:54.738Z,95631.98
2017-08-29T21:45:22.312Z,95635.13
2017-08-29T21:47:49.821Z,95621.89
2017-08-29T21:50:17.348Z,95632.61
2017-08-29T21:52:44.921Z,95634.83
2017-08-29T21:55:12.441Z,95639.07
2017-08-29T21:57:39.956Z,95652.52
2017-08-29T22:00:07.616Z,95651.52
2017-08-29T22:02:35.136Z,95643.09
2017-08-29T22:05:02.650Z,95652.45
2017-08-29T22:07:30.223Z,95654.17
2017-08-29T22:09:57.774Z,95656.41
2017-08-29T22:12:25.320Z,95656.17
2017-08-29T22:14:52.891Z,95656.53
2017-08-29T22:17:20.427Z,95664.92
2017-08-29T22:19:48.068Z,95661.83
2017-08-29T22:22:15.788Z,95661.86
2017-08-29T22:24:43.372Z,95669.95
2017-08-29T22:27:11.135Z,95663.30
2017-08-29T22:29:38.829Z,95669.70
2017-08-29T22:32:06.399Z,95665.63
2017-08-29T22:34:33.917Z,95668.12
2017-08-29T22:37:01.457Z,95672.85
2017-08-29T22:39:29.040Z,95678.87
2017-08-29T22:41:56.560Z,95684.45
2017-08-29T22:44:24.076Z,95676.42
2017-08-29T22:46:51.811Z,95683.09
2017-08-29T22:49:19.623Z,95680.44
2017-08-29T22:51:47.152Z,95686.56
2017-08-29T22:54:14.699Z,95689.95
2017-08-29T22:56:42.226Z,95688.97
2017-08-29T22:59:10.444Z,95690.28
2017-08-29T23:01:38.040Z,95701.13
2017-08-29T23:04:05.554Z,95693.64
2017-08-29T23:06:33.061Z,95690.42
2017-08-29T23:09:00.616Z,95696.55
2017-08-29T23:11:28.482Z,95699.98
2017-08-29T23:13:56.067Z,95702.66
2017-08-29T23:16:23.633Z,95702.87
2017-08-29T23:18:51.370Z,95706.17
2017-08-29T23:21:18.910Z,95702.63
2017-08-29T23:23:46.484Z,95712.45
2017-08-29T23:26:14.242Z,95707.48
2017-08-29T23:28:41.792Z,95714.89
2017-08-29T23:31:09.363Z,95711.41
2017-08-29T23:33:36.887Z,95711.23
2017-08-29T23:36:04.710Z,95708.36
2017-08-29T23:38:32.259Z,95710.11
2017-08-29T23:41:00.025Z,95711.81
2017-08-29T23:43:27.621Z,95705.56
2017-08-29T23:45:55.204Z,95719.05
2017-08-29T23:48:23.024Z,95708.45
2017-08-29T23:50:50.646Z,95711.91
2017-08-29T23:53:18.295Z,95713.34
2017-08-29T23:55:45.866Z,95714.63
2017-08-29T23:58:13.412Z,95715.18
